Time;durP1;ratioP1;P1;durP2;ratioP2;P2;SDS_P1;SDS_P2;PMS_P1;PMS_P2;Temp;Humidity;BMP_temperature;BMP_pressure;BME280_temperature;BME280_humidity;BME280_pressure;Samples;Min_cycle;Max_cycle;Signal;HPM_P1;HPM_P2
2022/09/26 00:00:43;;;;;;;7.05;1.90;;;11.90;99.90;;;;;;5074207;28;20040;-69
2022/09/26 00:03:10;;;;;;;5.10;2.10;;;11.80;99.90;;;;;;5074397;28;20047;-69
2022/09/26 00:05:37;;;;;;;6.65;2.45;;;11.90;99.90;;;;;;5074105;28;20041;-69
2022/09/26 00:08:04;;;;;;;4.20;2.13;;;11.80;99.90;;;;;;5074213;28;20044;-69
2022/09/26 00:10:30;;;;;;;4.90;2.20;;;11.80;99.90;;;;;;5073990;28;20093;-69
2022/09/26 00:12:55;;;;;;;6.72;2.05;;;11.80;99.90;;;;;;5073908;28;20040;-69
2022/09/26 00:15:22;;;;;;;6.25;2.17;;;11.80;99.90;;;;;;5074159;28;20119;-69
2022/09/26 00:17:47;;;;;;;6.55;2.17;;;11.80;99.90;;;;;;5073901;28;20041;-69
2022/09/26 00:20:13;;;;;;;8.65;2.50;;;11.80;99.90;;;;;;5073825;28;20052;-69
2022/09/26 00:22:38;;;;;;;4.50;2.00;;;11.80;99.90;;;;;;5073749;28;20032;-69
2022/09/26 00:25:04;;;;;;;6.38;2.20;;;11.80;99.90;;;;;;5073683;28;20036;-69
2022/09/26 00:27:30;;;;;;;5.63;1.88;;;11.80;99.90;;;;;;5074855;28;20046;-69
2022/09/26 00:29:55;;;;;;;5.38;2.17;;;11.80;99.90;;;;;;5075104;28;20409;-69
2022/09/26 00:32:21;;;;;;;3.00;1.75;;;11.80;99.90;;;;;;5073561;28;20049;-69
2022/09/26 00:34:47;;;;;;;6.28;2.40;;;11.80;99.90;;;;;;5073539;28;20083;-69
2022/09/26 00:37:12;;;;;;;3.70;1.73;;;11.90;99.90;;;;;;5073360;28;20044;-69
2022/09/26 00:39:38;;;;;;;6.93;1.92;;;11.80;99.90;;;;;;5073433;28;20115;-69
2022/09/26 00:42:03;;;;;;;5.60;1.98;;;11.90;99.90;;;;;;5073645;28;20037;-69
2022/09/26 00:44:55;;;;;;;5.00;1.88;;;11.80;99.90;;;;;;5073596;28;20477;-69
2022/09/26 00:47:35;;;;;;;7.05;2.20;;;11.90;99.90;;;;;;5073629;28;20048;-69
2022/09/26 00:50:15;;;;;;;5.63;1.90;;;11.80;99.90;;;;;;5073279;28;20060;-69
2022/09/26 00:53:04;;;;;;;4.88;1.65;;;11.80;99.90;;;;;;5074301;28;20036;-69
2022/09/26 00:55:35;;;;;;;6.05;2.22;;;11.80;99.90;;;;;;5073140;28;20049;-69
2022/09/26 00:58:11;;;;;;;4.57;1.70;;;11.80;99.90;;;;;;5073121;28;20049;-69
2022/09/26 01:00:39;;;;;;;3.17;1.42;;;11.80;99.90;;;;;;5073259;28;20443;-69
2022/09/26 01:03:05;;;;;;;5.65;1.63;;;11.80;99.90;;;;;;5072131;28;20115;-69
2022/09/26 01:05:31;;;;;;;6.60;1.80;;;11.70;99.90;;;;;;5073157;28;20079;-69
2022/09/26 01:07:57;;;;;;;5.15;1.73;;;11.70;99.90;;;;;;5072789;28;20076;-69
2022/09/26 01:10:23;;;;;;;7.07;1.52;;;11.70;99.90;;;;;;5072763;28;20040;-69
2022/09/26 01:12:50;;;;;;;8.02;1.55;;;11.70;99.90;;;;;;5072769;28;20098;-69
2022/09/26 01:15:15;;;;;;;6.22;1.65;;;11.70;99.90;;;;;;5072709;28;20091;-69
2022/09/26 01:17:43;;;;;;;5.35;1.45;;;11.70;99.90;;;;;;5072476;28;20087;-69
2022/09/26 01:20:20;;;;;;;6.22;1.58;;;11.70;99.90;;;;;;5072628;28;20043;-69
2022/09/26 01:23:12;;;;;;;5.60;1.52;;;11.70;99.90;;;;;;5072869;28;20127;-69
2022/09/26 01:26:04;;;;;;;8.50;1.45;;;11.70;99.90;;;;;;5072799;28;20119;-69
2022/09/26 01:29:10;;;;;;;5.57;1.40;;;11.70;99.90;;;;;;5072647;28;20449;-69
2022/09/26 01:32:47;;;;;;;6.32;1.90;;;11.70;99.90;;;;;;5072464;28;20500;-69
2022/09/26 01:34:45;;;;;;;9.02;1.95;;;11.60;99.90;;;;;;5072737;28;20080;-69
2022/09/26 01:37:25;;;;;;;4.55;1.33;;;11.60;99.90;;;;;;5072231;28;20082;-69
2022/09/26 01:40:15;;;;;;;6.68;1.45;;;11.70;99.90;;;;;;5072592;28;20090;-69
2022/09/26 01:43:04;;;;;;;5.72;1.42;;;11.70;99.90;;;;;;5072301;28;20045;-69
2022/09/26 01:45:45;;;;;;;7.35;2.00;;;11.70;99.90;;;;;;5072288;28;20041;-69
2022/09/26 01:48:19;;;;;;;8.40;1.83;;;11.70;99.90;;;;;;5072141;28;20055;-71
2022/09/26 01:51:04;;;;;;;7.50;1.70;;;11.70;99.90;;;;;;5072166;28;20076;-71
2022/09/26 01:53:45;;;;;;;5.63;1.63;;;11.70;99.90;;;;;;5072413;28;20086;-71
2022/09/26 01:56:16;;;;;;;7.57;1.48;;;11.70;99.90;;;;;;5072360;28;20048;-71
2022/09/26 01:58:54;;;;;;;7.90;1.67;;;11.70;99.90;;;;;;5071932;28;20048;-71
2022/09/26 02:01:22;;;;;;;4.72;1.40;;;11.70;99.90;;;;;;5072062;28;20048;-71
2022/09/26 02:03:51;;;;;;;5.30;1.63;;;11.70;99.90;;;;;;5072221;28;20040;-71
2022/09/26 02:06:36;;;;;;;6.50;1.60;;;11.70;99.90;;;;;;5072221;28;20040;-71
2022/09/26 02:09:16;;;;;;;7.53;1.55;;;11.70;99.90;;;;;;5072125;28;20044;-71
2022/09/26 02:11:46;;;;;;;6.90;1.60;;;11.70;99.90;;;;;;5071975;28;20048;-72
2022/09/26 02:14:17;;;;;;;9.32;1.60;;;11.70;99.90;;;;;;5072974;28;20497;-71
2022/09/26 02:16:48;;;;;;;6.53;1.77;;;11.70;99.90;;;;;;5071706;28;20040;-71
2022/09/26 02:19:27;;;;;;;8.95;1.75;;;11.70;99.90;;;;;;5071796;28;20526;-71
2022/09/26 02:21:54;;;;;;;7.25;1.67;;;11.70;99.90;;;;;;5071829;28;20161;-71
2022/09/26 02:24:21;;;;;;;7.22;1.52;;;11.70;99.90;;;;;;5071774;28;20493;-71
2022/09/26 02:26:47;;;;;;;6.60;1.92;;;11.70;99.90;;;;;;5071723;28;20498;-71
2022/09/26 02:29:13;;;;;;;5.93;1.83;;;11.70;99.90;;;;;;5071711;28;20048;-71
2022/09/26 02:31:47;;;;;;;8.75;1.75;;;11.70;99.90;;;;;;5071713;28;20032;-71
2022/09/26 02:34:12;;;;;;;7.05;1.90;;;11.70;99.90;;;;;;5071711;28;20071;-71
2022/09/26 02:36:38;;;;;;;9.07;2.60;;;11.70;99.90;;;;;;5071656;28;20091;-71
2022/09/26 02:39:03;;;;;;;5.10;2.13;;;11.70;99.90;;;;;;5072295;28;20036;-71
2022/09/26 02:41:29;;;;;;;7.63;2.00;;;11.70;99.90;;;;;;5071632;28;20549;-71
2022/09/26 02:44:26;;;;;;;7.07;2.42;;;11.70;99.90;;;;;;5071865;28;20041;-71
2022/09/26 02:47:23;;;;;;;9.55;2.65;;;11.70;99.90;;;;;;5071493;28;20036;-70
2022/09/26 02:50:30;;;;;;;7.50;2.55;;;11.70;99.90;;;;;;5071543;28;20040;-71
2022/09/26 02:53:34;;;;;;;7.43;2.90;;;11.70;99.90;;;;;;5071529;28;20040;-71
2022/09/26 02:56:06;;;;;;;7.72;2.47;;;11.70;99.90;;;;;;5071522;28;20111;-71
2022/09/26 02:58:58;;;;;;;6.13;3.13;;;11.60;99.90;;;;;;5071340;28;20409;-71
2022/09/26 03:01:37;;;;;;;5.72;2.75;;;11.60;99.90;;;;;;5071937;28;20497;-71
2022/09/26 03:04:27;;;;;;;10.15;2.92;;;11.60;99.90;;;;;;5071463;28;20043;-71
2022/09/26 03:06:59;;;;;;;8.05;3.08;;;11.60;99.90;;;;;;5071290;28;20116;-71
2022/09/26 03:09:26;;;;;;;9.05;3.75;;;11.60;99.90;;;;;;5071594;28;20052;-71
2022/09/26 03:11:53;;;;;;;10.57;3.60;;;11.50;99.90;;;;;;5071558;28;20535;-71
2022/09/26 03:14:20;;;;;;;8.98;3.58;;;11.50;99.90;;;;;;5071551;28;20048;-71
2022/09/26 03:16:46;;;;;;;7.15;3.60;;;11.50;99.90;;;;;;5071107;28;20068;-71
2022/09/26 03:19:34;;;;;;;10.02;3.70;;;11.50;99.90;;;;;;5054374;28;20086;-71
2022/09/26 03:22:01;;;;;;;5.68;3.55;;;11.50;99.90;;;;;;5071219;28;20041;-71
2022/09/26 03:24:27;;;;;;;8.00;3.85;;;11.40;99.90;;;;;;5071180;28;20055;-71
2022/09/26 03:26:54;;;;;;;6.72;4.13;;;11.40;99.90;;;;;;5074430;28;20037;-71
2022/09/26 03:29:20;;;;;;;5.22;3.53;;;11.40;99.90;;;;;;5075012;28;20141;-71
2022/09/26 03:31:48;;;;;;;8.30;3.72;;;11.40;99.90;;;;;;5074689;28;20520;-71
2022/09/26 03:34:15;;;;;;;6.63;3.90;;;11.40;99.90;;;;;;5075933;28;20072;-71
2022/09/26 03:36:40;;;;;;;8.38;4.50;;;11.40;99.90;;;;;;5074670;28;20036;-71
2022/09/26 03:39:06;;;;;;;7.10;3.90;;;11.40;99.90;;;;;;5074465;28;20041;-71
2022/09/26 03:41:31;;;;;;;10.75;4.00;;;11.40;99.90;;;;;;5074592;28;20074;-71
2022/09/26 03:43:57;;;;;;;6.72;3.78;;;11.40;99.90;;;;;;5074496;28;20036;-71
2022/09/26 03:46:23;;;;;;;8.85;4.20;;;11.40;99.90;;;;;;5074455;28;20055;-70
2022/09/26 03:48:49;;;;;;;10.07;3.80;;;11.40;99.90;;;;;;5074335;28;20119;-71
2022/09/26 03:51:16;;;;;;;11.40;4.18;;;11.40;99.90;;;;;;5074347;28;20045;-71
2022/09/26 03:53:45;;;;;;;9.55;3.85;;;11.40;99.90;;;;;;5074329;28;20145;-71
2022/09/26 03:56:13;;;;;;;10.40;3.90;;;11.40;99.90;;;;;;5074338;28;20048;-71
2022/09/26 03:58:40;;;;;;;9.40;3.85;;;11.40;99.90;;;;;;5074083;28;20421;-71
2022/09/26 04:01:08;;;;;;;9.75;3.67;;;11.40;99.90;;;;;;5074271;28;20051;-71
2022/09/26 04:03:35;;;;;;;9.00;3.88;;;11.40;99.90;;;;;;5074122;28;20037;-71
2022/09/26 04:06:01;;;;;;;9.43;3.20;;;11.40;99.90;;;;;;5074151;28;20094;-71
2022/09/26 04:08:27;;;;;;;9.18;3.85;;;11.40;99.90;;;;;;5074248;28;20068;-71
2022/09/26 04:10:58;;;;;;;8.07;3.95;;;11.40;99.90;;;;;;5074047;28;20535;-71
2022/09/26 04:13:24;;;;;;;6.72;3.65;;;11.40;99.90;;;;;;5074242;28;20095;-71
2022/09/26 04:15:57;;;;;;;9.80;4.10;;;11.40;99.90;;;;;;5074196;28;20440;-71
2022/09/26 04:18:23;;;;;;;9.82;4.65;;;11.40;99.90;;;;;;5073552;28;20424;-71
2022/09/26 04:20:48;;;;;;;7.10;4.07;;;11.40;99.90;;;;;;5073818;28;20048;-71
2022/09/26 04:23:14;;;;;;;7.38;4.57;;;11.40;99.90;;;;;;5073820;28;20032;-71
2022/09/26 04:25:39;;;;;;;7.13;4.05;;;11.40;99.90;;;;;;5073979;28;20037;-71
2022/09/26 04:28:05;;;;;;;7.07;4.25;;;11.40;99.90;;;;;;5073620;28;20046;-70
2022/09/26 04:30:31;;;;;;;14.52;5.38;;;11.40;99.90;;;;;;5073923;28;20044;-71
2022/09/26 04:32:56;;;;;;;8.02;4.18;;;11.40;99.90;;;;;;5073550;28;20431;-71
2022/09/26 04:35:24;;;;;;;6.05;4.60;;;11.40;99.90;;;;;;5073473;28;20125;-71
2022/09/26 04:37:50;;;;;;;10.68;5.05;;;11.40;99.90;;;;;;5073345;28;20524;-71
2022/09/26 04:40:16;;;;;;;10.40;5.05;;;11.40;99.90;;;;;;5073433;28;20047;-71
2022/09/26 04:42:41;;;;;;;10.07;5.35;;;11.30;99.90;;;;;;5073383;28;20036;-70
2022/09/26 04:45:07;;;;;;;7.05;4.88;;;11.30;99.90;;;;;;5073322;28;20079;-71
2022/09/26 04:47:33;;;;;;;9.77;4.55;;;11.30;99.90;;;;;;5073141;28;20043;-71
2022/09/26 04:49:58;;;;;;;10.80;5.05;;;11.30;99.90;;;;;;5073263;28;20416;-71
2022/09/26 04:52:25;;;;;;;12.80;4.97;;;11.30;99.90;;;;;;5073482;28;20076;-71
2022/09/26 04:54:51;;;;;;;7.82;5.20;;;11.30;99.90;;;;;;5073118;28;20040;-71
2022/09/26 04:57:16;;;;;;;8.82;5.55;;;11.30;99.90;;;;;;5073091;28;20416;-71
2022/09/26 04:59:42;;;;;;;8.88;5.30;;;11.30;99.90;;;;;;5074272;28;20040;-71
2022/09/26 05:02:08;;;;;;;10.60;5.45;;;11.30;99.90;;;;;;5072990;28;20048;-71
2022/09/26 05:04:33;;;;;;;8.00;5.50;;;11.30;99.90;;;;;;5073172;28;20124;-71
2022/09/26 05:06:59;;;;;;;8.57;5.82;;;11.30;99.90;;;;;;5073079;28;20397;-70
2022/09/26 05:09:25;;;;;;;8.35;5.70;;;11.30;99.90;;;;;;5072803;28;20493;-71
2022/09/26 05:11:51;;;;;;;7.10;5.57;;;11.30;99.90;;;;;;5074288;28;20115;-70
2022/09/26 05:14:17;;;;;;;10.05;6.05;;;11.30;99.90;;;;;;5072748;28;20044;-71
2022/09/26 05:16:42;;;;;;;6.47;5.53;;;11.20;99.90;;;;;;5072792;28;20047;-70
2022/09/26 05:19:08;;;;;;;8.35;6.07;;;11.20;99.90;;;;;;5072539;28;20390;-70
2022/09/26 05:21:34;;;;;;;10.25;6.10;;;11.20;99.90;;;;;;5072921;28;20042;-71
2022/09/26 05:26:47;;;;;;;9.77;6.18;;;11.20;99.90;;;;;;5072517;28;20044;-71
2022/09/26 05:29:12;;;;;;;8.07;5.50;;;11.20;99.90;;;;;;5072414;28;20055;-71
2022/09/26 05:31:38;;;;;;;11.07;6.40;;;11.20;99.90;;;;;;5072444;28;20040;-71
2022/09/26 05:34:09;;;;;;;8.77;5.88;;;11.20;99.90;;;;;;5072429;28;20045;-71
2022/09/26 05:36:36;;;;;;;8.63;6.13;;;11.20;99.90;;;;;;5072661;28;20123;-71
2022/09/26 05:39:02;;;;;;;10.25;5.57;;;11.20;99.90;;;;;;5055552;28;20102;-71
2022/09/26 05:41:30;;;;;;;8.88;6.20;;;11.20;99.90;;;;;;5072271;28;20039;-71
2022/09/26 05:43:55;;;;;;;13.70;6.07;;;11.20;99.90;;;;;;5072235;28;20062;-71
2022/09/26 05:46:21;;;;;;;7.20;5.43;;;11.20;99.90;;;;;;5072231;28;20066;-70
2022/09/26 05:48:47;;;;;;;7.38;5.25;;;11.10;99.90;;;;;;5071681;28;20037;-71
2022/09/26 05:51:15;;;;;;;9.35;5.82;;;11.10;99.90;;;;;;5072382;28;20125;-71
2022/09/26 05:53:43;;;;;;;9.30;5.70;;;11.20;99.90;;;;;;5072389;28;20386;-71
2022/09/26 05:56:10;;;;;;;9.02;5.05;;;11.10;99.90;;;;;;5073310;28;20041;-71
2022/09/26 05:58:38;;;;;;;11.25;6.18;;;11.10;99.90;;;;;;5072032;28;20115;-71
2022/09/26 06:01:06;;;;;;;8.98;5.78;;;11.10;99.90;;;;;;5072066;28;20614;-73
2022/09/26 06:03:33;;;;;;;9.18;5.55;;;11.10;99.90;;;;;;5072260;28;20488;-71
2022/09/26 06:06:07;;;;;;;8.05;5.20;;;11.10;99.90;;;;;;5073480;28;20051;-71
2022/09/26 06:08:33;;;;;;;8.98;5.75;;;11.10;99.90;;;;;;5071873;28;20048;-71
2022/09/26 06:11:02;;;;;;;10.25;5.05;;;11.10;99.90;;;;;;5072116;28;20067;-71
2022/09/26 06:13:28;;;;;;;11.15;5.47;;;11.00;99.90;;;;;;5071852;28;20111;-71
2022/09/26 06:15:53;;;;;;;8.07;5.38;;;11.00;99.90;;;;;;5071796;28;20520;-71
2022/09/26 06:18:19;;;;;;;11.00;5.50;;;11.00;99.90;;;;;;5071715;28;20048;-71
2022/09/26 06:20:45;;;;;;;9.30;4.88;;;11.00;99.90;;;;;;5071802;28;20040;-71
2022/09/26 06:23:11;;;;;;;7.85;4.88;;;11.10;99.90;;;;;;5071711;28;20379;-71
2022/09/26 06:25:36;;;;;;;10.77;5.15;;;11.00;99.90;;;;;;5072039;28;20036;-71
2022/09/26 06:28:02;;;;;;;7.80;5.00;;;11.00;99.90;;;;;;5071935;28;20558;-71
2022/09/26 06:30:28;;;;;;;7.45;5.03;;;11.00;99.90;;;;;;5071780;28;20492;-71
2022/09/26 06:32:53;;;;;;;7.80;4.38;;;11.00;99.90;;;;;;5071716;28;20052;-71
2022/09/26 06:35:20;;;;;;;10.68;4.70;;;11.00;99.90;;;;;;5054981;28;20032;-71
2022/09/26 06:37:46;;;;;;;8.80;4.50;;;11.00;99.90;;;;;;5073018;28;20037;-71
2022/09/26 06:40:11;;;;;;;5.80;4.40;;;11.00;99.90;;;;;;5071934;28;20063;-71
2022/09/26 06:42:38;;;;;;;7.13;3.88;;;11.10;99.90;;;;;;5071862;28;20379;-71
2022/09/26 06:45:06;;;;;;;7.95;4.18;;;11.10;99.90;;;;;;5071583;28;20043;-71
2022/09/26 06:47:32;;;;;;;10.90;4.35;;;11.10;99.90;;;;;;5071482;28;20122;-71
2022/09/26 06:49:58;;;;;;;6.35;3.92;;;11.10;99.90;;;;;;5071539;28;20044;-72
2022/09/26 06:52:25;;;;;;;8.05;4.78;;;11.00;99.90;;;;;;5071544;28;20043;-71
2022/09/26 06:54:54;;;;;;;7.55;4.00;;;11.00;99.90;;;;;;5071748;28;20040;-71
2022/09/26 06:57:20;;;;;;;7.22;4.00;;;11.10;99.90;;;;;;5054939;28;20040;-71
2022/09/26 06:59:45;;;;;;;8.18;4.05;;;11.00;99.90;;;;;;5071940;28;20492;-71
2022/09/26 07:02:11;;;;;;;8.88;3.85;;;11.00;99.90;;;;;;5075304;28;20413;-71
2022/09/26 07:04:37;;;;;;;10.70;4.72;;;11.00;99.90;;;;;;5075239;28;20405;-71
2022/09/26 07:07:02;;;;;;;9.95;3.80;;;11.00;99.90;;;;;;5075416;28;20036;-70
2022/09/26 07:09:28;;;;;;;7.57;3.97;;;11.00;99.90;;;;;;5076659;28;20554;-71
2022/09/26 07:11:54;;;;;;;9.25;3.80;;;11.00;99.90;;;;;;5075058;28;20458;-71
2022/09/26 07:14:20;;;;;;;6.80;3.80;;;11.00;99.90;;;;;;5074996;28;20070;-71
2022/09/26 07:16:48;;;;;;;9.57;3.83;;;11.00;99.90;;;;;;5075178;28;20126;-70
2022/09/26 07:19:15;;;;;;;8.88;3.67;;;11.00;99.90;;;;;;5074854;28;20037;-72
2022/09/26 07:21:40;;;;;;;7.25;4.07;;;11.00;99.90;;;;;;5074954;28;20040;-71
2022/09/26 07:24:07;;;;;;;7.13;3.35;;;11.00;99.90;;;;;;5075123;28;20059;-70
2022/09/26 07:26:33;;;;;;;6.20;3.30;;;11.00;99.90;;;;;;5074822;28;20478;-71
2022/09/26 07:28:58;;;;;;;6.43;3.60;;;11.00;99.90;;;;;;5075059;28;20127;-71
2022/09/26 07:31:24;;;;;;;8.80;3.40;;;11.00;99.90;;;;;;5076022;28;20143;-70
2022/09/26 07:33:49;;;;;;;4.32;2.80;;;11.00;99.90;;;;;;5074686;28;20040;-70
2022/09/26 07:36:17;;;;;;;9.88;3.47;;;11.00;99.90;;;;;;5076494;28;20115;-71
2022/09/26 07:38:47;;;;;;;6.60;3.25;;;11.00;99.90;;;;;;5074666;28;20058;-71
2022/09/26 07:41:13;;;;;;;7.40;3.13;;;11.00;99.90;;;;;;5074879;28;20048;-71
2022/09/26 07:43:38;;;;;;;7.68;3.17;;;11.00;99.90;;;;;;5074503;28;20119;-70
2022/09/26 07:51:32;;;;;;;5.97;3.22;;;11.00;99.90;;;;;;5074477;28;20044;-71
2022/09/26 07:53:58;;;;;;;9.93;3.70;;;11.00;99.90;;;;;;5074345;28;20045;-70
2022/09/26 07:56:23;;;;;;;6.43;3.00;;;11.00;99.90;;;;;;5074322;28;20047;-70
2022/09/26 07:58:49;;;;;;;6.35;3.00;;;11.10;99.90;;;;;;5074296;28;20083;-71
2022/09/26 08:01:15;;;;;;;6.55;3.20;;;11.10;99.90;;;;;;5074211;28;20458;-71
2022/09/26 08:03:46;;;;;;;5.75;3.10;;;11.10;99.90;;;;;;5074170;28;20501;-71
2022/09/26 08:06:13;;;;;;;6.38;2.88;;;11.20;99.90;;;;;;5074422;28;20037;-71
2022/09/26 08:08:40;;;;;;;7.75;3.33;;;11.20;99.90;;;;;;5075522;28;20044;-71
2022/09/26 08:11:15;;;;;;;7.97;3.25;;;11.20;99.90;;;;;;5073708;28;20048;-71
2022/09/26 08:13:44;;;;;;;7.20;3.00;;;11.30;99.90;;;;;;5074028;28;20071;-71
2022/09/26 08:16:13;;;;;;;6.50;2.70;;;11.30;99.90;;;;;;5073968;28;20047;-71
2022/09/26 08:18:38;;;;;;;6.35;2.88;;;11.30;99.90;;;;;;5073626;28;20045;-71
2022/09/26 08:21:05;;;;;;;4.90;2.80;;;11.40;99.90;;;;;;5074094;28;20102;-71
2022/09/26 08:23:31;;;;;;;8.48;3.03;;;11.40;99.90;;;;;;5074042;28;20044;-71
2022/09/26 08:25:58;;;;;;;6.90;2.85;;;11.40;99.90;;;;;;5073987;28;20489;-71
2022/09/26 08:28:26;;;;;;;5.63;2.55;;;11.50;99.90;;;;;;5073626;28;20048;-71
2022/09/26 08:30:51;;;;;;;5.13;3.00;;;11.50;99.90;;;;;;5073666;28;20053;-71
2022/09/26 08:33:17;;;;;;;6.88;2.70;;;11.50;99.90;;;;;;5073581;28;20127;-71
2022/09/26 08:35:44;;;;;;;9.40;3.00;;;11.50;99.90;;;;;;5073530;28;20044;-71
2022/09/26 08:38:09;;;;;;;10.30;3.35;;;11.60;99.90;;;;;;5073351;28;20070;-70
2022/09/26 08:41:15;;;;;;;8.77;2.72;;;11.50;99.90;;;;;;5073440;28;20106;-70
2022/09/26 08:43:48;;;;;;;7.55;2.65;;;11.60;99.90;;;;;;5038512;28;20095;-70
2022/09/26 08:47:22;;;;;;;6.88;2.65;;;11.60;99.90;;;;;;5073378;28;20052;-70
2022/09/26 08:49:49;;;;;;;8.02;2.72;;;11.60;99.90;;;;;;5062708;28;20050;-71
2022/09/26 08:52:42;;;;;;;6.65;2.80;;;11.60;99.90;;;;;;5073305;28;20043;-71
2022/09/26 08:55:18;;;;;;;6.63;2.70;;;11.70;99.90;;;;;;5073454;28;20443;-71
2022/09/26 08:57:53;;;;;;;6.30;2.80;;;11.70;99.90;;;;;;5073020;28;20048;-70
2022/09/26 09:00:23;;;;;;;7.10;2.90;;;11.70;99.90;;;;;;5073126;28;20485;-70
2022/09/26 09:02:59;;;;;;;7.70;2.63;;;11.70;99.90;;;;;;5073263;28;20044;-71
2022/09/26 09:05:30;;;;;;;6.43;2.63;;;11.80;99.90;;;;;;5073248;28;20178;-71
2022/09/26 09:07:57;;;;;;;6.32;2.88;;;11.80;99.90;;;;;;5072838;28;20040;-71
2022/09/26 09:10:51;;;;;;;6.53;2.80;;;11.80;99.90;;;;;;5072885;28;20052;-71
2022/09/26 09:13:44;;;;;;;10.20;2.80;;;11.80;99.90;;;;;;5072885;28;20048;-71
2022/09/26 09:16:24;;;;;;;;;;;11.90;99.90;;;;;;5073194;28;20040;-71
2022/09/26 09:19:15;;;;;;;7.70;2.83;;;11.90;99.90;;;;;;5072488;28;19963;-71
2022/09/26 09:22:08;;;;;;;8.18;2.80;;;11.90;99.90;;;;;;5072665;28;20036;-71
2022/09/26 09:25:00;;;;;;;10.73;2.88;;;12.00;99.90;;;;;;5072128;28;20044;-72
2022/09/26 09:28:07;;;;;;;6.28;2.95;;;12.00;99.90;;;;;;5072722;28;20086;-71
2022/09/26 09:30:50;;;;;;;6.65;2.92;;;12.00;99.90;;;;;;5072522;28;20123;-71
2022/09/26 09:33:27;;;;;;;8.02;2.92;;;12.00;99.90;;;;;;5072744;28;20045;-71
2022/09/26 09:36:09;;;;;;;7.47;2.75;;;12.10;99.90;;;;;;5072443;28;20040;-71
2022/09/26 09:38:38;;;;;;;11.90;3.03;;;12.10;99.90;;;;;;5072243;28;20553;-71
2022/09/26 09:41:14;;;;;;;8.15;2.70;;;12.10;99.90;;;;;;5074086;28;20040;-71
2022/09/26 09:43:59;;;;;;;8.10;2.80;;;12.10;99.90;;;;;;5055616;28;20036;-71
2022/09/26 09:46:29;;;;;;;12.73;3.45;;;12.10;99.90;;;;;;5073037;28;20044;-71
2022/09/26 09:48:59;;;;;;;12.55;3.22;;;12.10;99.90;;;;;;5072164;28;20131;-71
2022/09/26 09:51:55;;;;;;;6.28;3.03;;;12.10;99.90;;;;;;5072421;28;20094;-71
2022/09/26 09:54:42;;;;;;;6.65;2.92;;;12.10;99.90;;;;;;5072420;28;20062;-70
2022/09/26 09:57:22;;;;;;;7.95;3.00;;;12.10;99.90;;;;;;5072331;28;20040;-71
2022/09/26 10:00:07;;;;;;;7.60;3.10;;;12.10;99.90;;;;;;5072048;28;20094;-71
2022/09/26 10:02:49;;;;;;;9.27;4.00;;;12.10;99.90;;;;;;5072064;28;20052;-71
2022/09/26 10:05:41;;;;;;;8.88;3.60;;;12.10;99.90;;;;;;5072042;28;20546;-71
2022/09/26 10:08:26;;;;;;;6.70;3.05;;;12.10;99.90;;;;;;5073733;28;20047;-71
2022/09/26 10:11:22;;;;;;;9.55;3.40;;;12.10;99.90;;;;;;5071973;28;20044;-73
2022/09/26 10:13:52;;;;;;;8.00;3.40;;;12.10;99.90;;;;;;5071902;28;20048;-71
2022/09/26 10:16:18;;;;;;;7.05;3.58;;;12.20;99.90;;;;;;5071868;28;20051;-70
2022/09/26 10:19:00;;;;;;;6.00;3.20;;;12.20;99.90;;;;;;5071602;28;20094;-71
2022/09/26 10:21:33;;;;;;;10.18;3.53;;;12.20;99.90;;;;;;5072046;28;20040;-71
2022/09/26 10:24:00;;;;;;;9.57;3.63;;;12.20;99.90;;;;;;5071823;28;20040;-71
2022/09/26 10:26:34;;;;;;;7.40;3.55;;;12.20;99.90;;;;;;5071779;28;20083;-73
2022/09/26 10:29:05;;;;;;;6.97;3.40;;;12.20;99.90;;;;;;5073570;28;20044;-71
2022/09/26 10:31:39;;;;;;;5.88;3.92;;;12.20;99.90;;;;;;5073351;28;20476;-71
2022/09/26 10:34:24;;;;;;;8.88;3.42;;;12.20;99.90;;;;;;5072450;28;20044;-71
2022/09/26 10:36:49;;;;;;;6.78;3.05;;;12.20;99.90;;;;;;5075899;28;20477;-71
2022/09/26 10:42:00;;;;;;;8.25;3.00;;;12.10;99.90;;;;;;5076021;28;20135;-71
2022/09/26 10:44:35;;;;;;;11.32;3.30;;;12.10;99.90;;;;;;5075706;28;20037;-71
2022/09/26 10:47:09;;;;;;;6.72;2.95;;;12.10;99.90;;;;;;5075538;28;20119;-71
2022/09/26 10:49:57;;;;;;;6.00;3.53;;;12.10;99.90;;;;;;5076421;28;20089;-71
2022/09/26 10:52:36;;;;;;;5.93;3.25;;;12.10;99.90;;;;;;5075637;28;20044;-67
2022/09/26 10:55:19;;;;;;;8.95;3.33;;;12.10;99.90;;;;;;5075497;28;20044;-67
2022/09/26 10:57:49;;;;;;;9.15;3.28;;;12.10;99.90;;;;;;5075620;28;20123;-67
2022/09/26 11:00:20;;;;;;;8.70;3.35;;;12.10;99.90;;;;;;5076599;28;20047;-67
2022/09/26 11:02:52;;;;;;;8.43;3.28;;;12.10;99.90;;;;;;5075375;28;20123;-67
2022/09/26 11:08:12;;;;;;;6.85;3.38;;;12.10;99.90;;;;;;5075234;28;20049;-67
2022/09/26 11:10:40;;;;;;;8.27;3.80;;;12.10;99.90;;;;;;5075287;28;20102;-67
2022/09/26 11:13:19;;;;;;;9.55;3.00;;;12.10;99.90;;;;;;5075411;28;20123;-67
2022/09/26 11:16:08;;;;;;;6.50;3.70;;;12.10;99.90;;;;;;5075053;28;20072;-67
2022/09/26 11:18:44;;;;;;;7.10;3.78;;;12.10;99.90;;;;;;5074730;28;20078;-67
2022/09/26 11:21:35;;;;;;;5.72;3.50;;;12.10;99.90;;;;;;5076280;28;20408;-67
2022/09/26 11:24:14;;;;;;;7.72;3.72;;;12.10;99.90;;;;;;5074930;28;20547;-67
2022/09/26 11:27:04;;;;;;;5.95;3.40;;;12.00;99.90;;;;;;5074904;28;20051;-67
2022/09/26 11:29:43;;;;;;;6.28;3.50;;;12.10;99.90;;;;;;5075098;28;20055;-67
2022/09/26 11:32:28;;;;;;;6.55;3.00;;;12.00;99.90;;;;;;5074790;28;20402;-67
2022/09/26 11:35:01;;;;;;;9.10;4.13;;;12.00;99.90;;;;;;5074788;28;20059;-67
2022/09/26 11:37:44;;;;;;;6.10;3.53;;;12.00;99.90;;;;;;5074685;28;20523;-67
2022/09/26 11:40:33;;;;;;;5.55;3.38;;;12.00;99.90;;;;;;5074669;28;20045;-67
2022/09/26 11:43:05;;;;;;;7.10;3.25;;;12.00;99.90;;;;;;5074885;28;20040;-67
2022/09/26 11:45:43;;;;;;;8.32;3.33;;;12.00;99.90;;;;;;5074331;28;20036;-67
2022/09/26 11:48:30;;;;;;;4.95;2.83;;;12.00;99.90;;;;;;5074422;28;20045;-67
2022/09/26 11:51:33;;;;;;;4.60;2.72;;;12.00;99.90;;;;;;5074698;28;20044;-67
2022/09/26 11:54:13;;;;;;;7.37;2.93;;;12.00;99.90;;;;;;5074466;28;20044;-67
2022/09/26 11:56:49;;;;;;;7.45;3.50;;;12.00;99.90;;;;;;5076017;28;20048;-67
2022/09/26 11:59:30;;;;;;;6.53;3.10;;;12.00;99.90;;;;;;5074223;28;20051;-67
2022/09/26 12:02:33;;;;;;;6.15;3.40;;;12.00;99.90;;;;;;5074259;28;20085;-67
2022/09/26 12:05:24;;;;;;;7.00;3.47;;;12.10;99.90;;;;;;5074186;28;20044;-68
2022/09/26 12:08:10;;;;;;;4.55;3.05;;;12.10;99.90;;;;;;5074118;28;20519;-70
2022/09/26 13:49:19;;;;;;;2.58;1.20;;;12.90;99.90;;;;;;5352952;22;20054;-67
2022/09/26 13:52:04;;;;;;;3.72;1.40;;;12.90;99.90;;;;;;4976830;28;20042;-67
2022/09/26 13:54:52;;;;;;;2.17;1.42;;;12.90;99.90;;;;;;4977031;28;20046;-67
2022/09/26 13:57:33;;;;;;;3.13;1.50;;;12.90;99.90;;;;;;4976919;28;20042;-68
2022/09/26 14:00:03;;;;;;;2.05;1.42;;;12.90;99.90;;;;;;4976633;28;20046;-67
2022/09/26 14:02:29;;;;;;;2.53;1.60;;;12.90;99.90;;;;;;4976670;28;20034;-67
2022/09/26 14:04:57;;;;;;;5.00;1.58;;;13.00;99.90;;;;;;4976607;28;20042;-66
2022/09/26 14:10:39;;;;;;;2.92;1.70;;;13.10;99.90;;;;;;4976268;28;20137;-67
2022/09/26 14:13:20;;;;;;;4.00;1.80;;;13.10;99.90;;;;;;4976597;28;20073;-66
2022/09/26 14:15:46;;;;;;;3.75;1.77;;;13.10;99.90;;;;;;4976733;28;20042;-69
2022/09/26 14:18:39;;;;;;;1.88;1.63;;;13.00;99.90;;;;;;4960175;28;20057;-67
2022/09/26 14:21:15;;;;;;;3.47;1.92;;;13.10;99.90;;;;;;4976848;28;20046;-69
2022/09/26 14:23:44;;;;;;;2.47;1.63;;;13.00;99.90;;;;;;4976308;28;20046;-67
2022/09/26 14:26:13;;;;;;;2.85;1.60;;;13.00;99.90;;;;;;4976331;28;20503;-70
2022/09/26 14:28:45;;;;;;;2.42;1.60;;;13.00;99.90;;;;;;4977148;28;20149;-67
2022/09/26 14:31:23;;;;;;;2.00;1.58;;;13.00;99.90;;;;;;4976312;28;20506;-67
2022/09/26 14:34:02;;;;;;;2.75;1.73;;;13.10;99.90;;;;;;4960253;28;20048;-70
2022/09/26 14:36:32;;;;;;;3.15;1.90;;;13.10;99.90;;;;;;4976277;28;20125;-69
2022/09/26 14:38:58;;;;;;;2.65;1.80;;;13.00;99.90;;;;;;4993516;28;20399;-71
2022/09/26 14:41:34;;;;;;;2.55;1.90;;;13.00;99.90;;;;;;4976481;28;20044;-70
2022/09/26 14:44:03;;;;;;;3.47;2.35;;;13.10;99.90;;;;;;4976227;28;20046;-66
2022/09/26 14:46:32;;;;;;;3.92;2.10;;;13.10;99.90;;;;;;4976168;28;20506;-73
2022/09/26 14:49:02;;;;;;;3.88;1.90;;;13.10;99.90;;;;;;4975933;28;20038;-71
2022/09/26 14:51:37;;;;;;;3.97;2.33;;;13.10;99.90;;;;;;4976151;28;20058;-70
2022/09/26 14:54:12;;;;;;;5.80;2.45;;;13.10;99.90;;;;;;4976125;28;20049;-71
2022/09/26 14:56:42;;;;;;;4.10;2.42;;;13.00;99.90;;;;;;4976108;28;20456;-72
2022/09/26 14:59:23;;;;;;;3.95;2.88;;;13.00;99.90;;;;;;4976056;28;20038;-71
2022/09/26 15:01:50;;;;;;;6.32;2.80;;;13.00;99.90;;;;;;4976224;28;20124;-71
2022/09/26 15:04:28;;;;;;;4.50;2.72;;;13.00;99.90;;;;;;4976022;28;20121;-71
2022/09/26 15:06:59;;;;;;;5.40;2.95;;;13.00;99.90;;;;;;4976001;28;20034;-71
2022/09/26 15:09:43;;;;;;;5.47;3.00;;;13.00;99.90;;;;;;4976183;28;20046;-71